createdAt,value
2018-01-20T00:00:34.110Z,91.43
2018-01-20T00:01:14.675Z,91.43
2018-01-20T00:01:55.242Z,91.52
2018-01-20T00:02:35.812Z,90.95
2018-01-20T00:03:16.359Z,90.95
2018-01-20T00:03:56.936Z,90.86
2018-01-20T00:04:37.498Z,90.77
2018-01-20T00:05:18.071Z,90.95
2018-01-20T00:05:58.640Z,91.05
2018-01-20T00:06:39.190Z,91.24
2018-01-20T00:07:19.773Z,90.48
2018-01-20T00:08:00.337Z,90.58
2018-01-20T00:08:40.895Z,90.67
2018-01-20T00:09:21.469Z,90.77
2018-01-20T00:10:02.029Z,90.67
2018-01-20T00:10:42.678Z,90.77
2018-01-20T00:11:23.287Z,90.86
2018-01-20T00:12:03.866Z,90.39
2018-01-20T00:12:44.438Z,90.39
2018-01-20T00:13:25.008Z,90.01
2018-01-20T00:14:05.577Z,89.91
2018-01-20T00:14:46.180Z,89.72
2018-01-20T00:15:26.753Z,89.91
2018-01-20T00:16:07.330Z,89.91
2018-01-20T00:16:47.910Z,90.01
2018-01-20T00:17:28.495Z,90.1
2018-01-20T00:18:09.069Z,90.29
2018-01-20T00:18:49.646Z,90.1
2018-01-20T00:19:30.256Z,90.1
2018-01-20T00:20:10.815Z,89.91
2018-01-20T00:20:51.377Z,90.1
2018-01-20T00:21:31.928Z,89.91
2018-01-20T00:22:12.505Z,89.91
2018-01-20T00:22:53.095Z,90.01
2018-01-20T00:23:33.651Z,90.29
2018-01-20T00:24:14.218Z,90.39
2018-01-20T00:24:54.782Z,90.58
2018-01-20T00:25:35.360Z,90.58
2018-01-20T00:26:15.920Z,90.48
2018-01-20T00:26:56.489Z,90.39
2018-01-20T00:27:37.038Z,89.72
2018-01-20T00:28:17.617Z,89.72
2018-01-20T00:28:58.176Z,89.91
2018-01-20T00:29:38.739Z,90.01
2018-01-20T00:30:19.307Z,90.1
2018-01-20T00:30:59.871Z,89.82
2018-01-20T00:31:40.434Z,89.72
2018-01-20T00:32:20.990Z,90.1
2018-01-20T00:33:01.558Z,89.72
2018-01-20T00:33:42.119Z,89.82
2018-01-20T00:34:22.672Z,89.72
2018-01-20T00:35:03.241Z,89.82
2018-01-20T00:35:43.796Z,89.82
2018-01-20T00:36:24.355Z,90.1
2018-01-20T00:37:04.918Z,90.29
2018-01-20T00:37:45.480Z,90.2
2018-01-20T00:38:26.061Z,89.72
2018-01-20T00:39:06.659Z,90.2
2018-01-20T00:39:47.186Z,90.2
2018-01-20T00:40:27.749Z,90.01
2018-01-20T00:41:08.319Z,89.63
2018-01-20T00:41:48.887Z,89.63
2018-01-20T00:42:29.437Z,90.2
2018-01-20T00:43:10.003Z,90.2
2018-01-20T00:43:50.555Z,90.1
2018-01-20T00:44:31.121Z,90.29
2018-01-20T00:45:11.684Z,90.39
2018-01-20T00:45:52.270Z,89.72
2018-01-20T00:46:32.876Z,89.72
2018-01-20T00:47:13.486Z,89.34
2018-01-20T00:47:54.000Z,89.72
2018-01-20T00:48:34.555Z,89.44
2018-01-20T00:49:15.131Z,89.63
2018-01-20T00:49:55.689Z,89.25
2018-01-20T00:50:36.255Z,90.1
2018-01-20T00:51:16.806Z,90.1
2018-01-20T00:51:57.369Z,90.1
2018-01-20T00:52:37.940Z,90.39
2018-01-20T00:53:18.499Z,89.72
2018-01-20T00:53:59.062Z,90.1
2018-01-20T00:54:39.630Z,89.72
2018-01-20T00:55:20.188Z,90.01
2018-01-20T00:56:00.751Z,89.44
2018-01-20T00:56:41.309Z,90.2
2018-01-20T00:57:21.875Z,89.44
2018-01-20T00:58:02.434Z,89.44
2018-01-20T00:58:43.001Z,88.96
2018-01-20T00:59:23.577Z,89.06
2018-01-20T01:00:04.139Z,89.06
2018-01-20T01:00:44.718Z,89.15
2018-01-20T01:01:25.278Z,89.06
2018-01-20T01:02:05.840Z,88.87
2018-01-20T01:02:46.402Z,89.06
2018-01-20T01:03:26.974Z,88.96
2018-01-20T01:04:07.545Z,88.78
2018-01-20T01:04:48.100Z,88.96
2018-01-20T01:05:28.658Z,88.87
2018-01-20T01:06:09.213Z,88.87
2018-01-20T01:06:49.765Z,89.06
2018-01-20T01:07:30.314Z,88.78
2018-01-20T01:08:10.871Z,89.15
2018-01-20T01:08:51.425Z,89.53
2018-01-20T01:09:31.988Z,89.53
2018-01-20T01:10:12.552Z,89.53
2018-01-20T01:10:53.112Z,89.53
2018-01-20T01:11:33.678Z,89.63
2018-01-20T01:12:14.229Z,89.34
2018-01-20T01:12:54.814Z,90.01
2018-01-20T01:13:35.365Z,90.1
2018-01-20T01:14:18.431Z,89.53
2018-01-20T01:14:58.987Z,89.63
2018-01-20T01:15:39.540Z,89.44
2018-01-20T01:16:20.096Z,89.63
2018-01-20T01:17:00.669Z,89.06
2018-01-20T01:17:41.216Z,88.96
2018-01-20T01:18:21.767Z,88.96
2018-01-20T01:19:02.323Z,88.96
2018-01-20T01:19:42.881Z,89.63
2018-01-20T01:20:23.441Z,89.72
2018-01-20T01:21:03.996Z,90.1
2018-01-20T01:21:44.548Z,89.91
2018-01-20T01:22:25.109Z,89.91
2018-01-20T01:23:05.662Z,89.82
2018-01-20T01:23:46.223Z,89.34
2018-01-20T01:24:26.791Z,89.25
2018-01-20T01:25:07.407Z,88.87
2018-01-20T01:25:47.976Z,89.15
2018-01-20T01:26:28.542Z,89.06
2018-01-20T01:27:09.096Z,88.87
2018-01-20T01:27:49.651Z,89.06
2018-01-20T01:28:30.207Z,89.72
2018-01-20T01:29:10.769Z,89.34
2018-01-20T01:29:51.333Z,89.91
2018-01-20T01:30:31.901Z,89.72
2018-01-20T01:31:12.467Z,89.63
2018-01-20T01:31:53.027Z,89.63
2018-01-20T01:32:33.598Z,89.34
2018-01-20T01:33:14.160Z,89.63
2018-01-20T01:33:54.736Z,89.63
2018-01-20T01:34:35.298Z,88.87
2018-01-20T01:35:15.865Z,88.87
2018-01-20T01:35:56.442Z,89.06
2018-01-20T01:36:36.996Z,88.68
2018-01-20T01:37:17.585Z,89.06
2018-01-20T01:37:58.147Z,88.96
2018-01-20T01:38:38.717Z,88.87
2018-01-20T01:39:19.282Z,88.87
2018-01-20T01:39:59.836Z,88.87
2018-01-20T01:40:40.399Z,89.25
2018-01-20T01:41:20.958Z,89.53
2018-01-20T01:42:01.548Z,89.53
2018-01-20T01:42:42.113Z,89.34
2018-01-20T01:43:22.698Z,88.96
2018-01-20T01:44:03.264Z,88.96
2018-01-20T01:44:43.821Z,89.25
2018-01-20T01:45:24.379Z,88.96
2018-01-20T01:46:04.936Z,88.87
2018-01-20T01:46:45.490Z,88.96
2018-01-20T01:47:26.053Z,88.92
2018-01-20T01:48:06.611Z,89.3
2018-01-20T01:48:47.166Z,89.49
2018-01-20T01:49:27.755Z,89.15
2018-01-20T01:50:08.321Z,89.53
2018-01-20T01:50:48.877Z,89.01
2018-01-20T01:51:29.434Z,89.34
2018-01-20T01:52:09.989Z,89.63
2018-01-20T01:52:50.554Z,89.15
2018-01-20T01:53:31.122Z,89.44
2018-01-20T01:54:11.664Z,89.06
2018-01-20T01:54:52.238Z,89.06
2018-01-20T01:55:32.785Z,88.87
2018-01-20T01:56:13.356Z,89.3
2018-01-20T01:56:53.932Z,88.82
2018-01-20T01:57:34.490Z,89.01
2018-01-20T01:58:15.044Z,89.49
2018-01-20T01:58:55.597Z,89.2
2018-01-20T01:59:36.161Z,89.63
2018-01-20T02:00:16.715Z,89.34
2018-01-20T02:00:57.268Z,89.77
2018-01-20T02:01:37.857Z,89.49
2018-01-20T02:02:18.420Z,89.58
2018-01-20T02:02:58.979Z,90.06
2018-01-20T02:03:39.543Z,90.15
2018-01-20T02:04:20.103Z,89.96
2018-01-20T02:05:00.684Z,89.49
2018-01-20T02:05:41.238Z,89.39
2018-01-20T02:06:21.793Z,89.3
2018-01-20T02:07:02.350Z,89.68
2018-01-20T02:07:42.921Z,90.15
2018-01-20T02:08:23.474Z,89.68
2018-01-20T02:09:04.031Z,90.44
2018-01-20T02:09:44.579Z,89.77
2018-01-20T02:10:25.144Z,89.87
2018-01-20T02:11:05.701Z,89.77
2018-01-20T02:11:46.260Z,89.96
2018-01-20T02:12:26.813Z,89.87
2018-01-20T02:13:07.369Z,89.39
2018-01-20T02:13:47.942Z,89.3
2018-01-20T02:14:28.508Z,89.3
2018-01-20T02:15:09.068Z,89.39
2018-01-20T02:15:49.622Z,89.3
2018-01-20T02:16:30.197Z,89.87
2018-01-20T02:17:10.766Z,90.06
2018-01-20T02:17:51.334Z,89.96
2018-01-20T02:18:31.899Z,89.96
2018-01-20T02:19:12.452Z,89.96
2018-01-20T02:19:53.010Z,90.06
2018-01-20T02:20:33.566Z,89.77
2018-01-20T02:21:14.121Z,89.96
2018-01-20T02:21:54.730Z,90.06
2018-01-20T02:22:35.274Z,89.77
2018-01-20T02:23:15.822Z,90.15
2018-01-20T02:23:56.374Z,89.68
2018-01-20T02:24:36.929Z,89.96
2018-01-20T02:25:17.479Z,89.3
2018-01-20T02:25:58.038Z,89.2
2018-01-20T02:26:38.705Z,89.3
2018-01-20T02:27:19.171Z,89.39
2018-01-20T02:27:59.740Z,89.58
2018-01-20T02:28:40.324Z,89.58
2018-01-20T02:29:20.883Z,89.58
2018-01-20T02:30:01.436Z,89.58
2018-01-20T02:30:41.987Z,89.2
2018-01-20T02:31:22.539Z,89.3
2018-01-20T02:32:03.105Z,89.3
2018-01-20T02:32:43.661Z,90.15
2018-01-20T02:33:24.272Z,89.3
2018-01-20T02:34:04.786Z,89.58
2018-01-20T02:34:45.364Z,89.49
2018-01-20T02:35:25.941Z,89.96
2018-01-20T02:36:06.494Z,89.77
2018-01-20T02:36:47.061Z,89.96
2018-01-20T02:37:27.612Z,89.39
2018-01-20T02:38:08.165Z,89.3
2018-01-20T02:38:48.748Z,90.06
2018-01-20T02:39:29.314Z,89.96
2018-01-20T02:40:09.876Z,90.06
2018-01-20T02:40:50.440Z,90.06
2018-01-20T02:41:31.000Z,89.68
2018-01-20T02:42:11.564Z,90.06
2018-01-20T02:42:52.120Z,89.68
2018-01-20T02:43:32.699Z,89.87
2018-01-20T02:44:13.241Z,89.77
2018-01-20T02:44:53.838Z,90.15
2018-01-20T02:45:34.387Z,89.96
2018-01-20T02:46:14.946Z,90.06
2018-01-20T02:46:55.513Z,89.96
2018-01-20T02:47:36.083Z,89.96
2018-01-20T02:48:16.649Z,89.96
2018-01-20T02:48:57.205Z,90.15
2018-01-20T02:49:37.761Z,89.77
2018-01-20T02:50:18.324Z,90.06
2018-01-20T02:50:58.884Z,89.77
2018-01-20T02:51:39.445Z,89.96
2018-01-20T02:52:20.008Z,89.96
2018-01-20T02:53:00.566Z,89.77
2018-01-20T02:53:41.137Z,89.87
2018-01-20T02:54:21.693Z,89.87
2018-01-20T02:55:02.242Z,89.87
2018-01-20T02:55:42.826Z,89.87
2018-01-20T02:56:23.395Z,89.96
2018-01-20T02:57:03.958Z,89.87
2018-01-20T02:57:44.513Z,89.77
2018-01-20T02:58:25.072Z,89.87
2018-01-20T02:59:05.626Z,89.68
2018-01-20T02:59:46.197Z,89.77
2018-01-20T03:00:26.745Z,89.68
2018-01-20T03:01:07.318Z,89.87
2018-01-20T03:01:47.886Z,89.58
2018-01-20T03:02:28.442Z,89.68
2018-01-20T03:03:09.010Z,89.96
2018-01-20T03:03:49.577Z,90.34
2018-01-20T03:04:30.161Z,90.15
2018-01-20T03:05:10.716Z,90.72
2018-01-20T03:05:51.276Z,90.15
2018-01-20T03:06:31.829Z,89.96
2018-01-20T03:07:12.392Z,90.06
2018-01-20T03:07:52.962Z,90.06
2018-01-20T03:08:33.524Z,89.68
2018-01-20T03:09:14.084Z,90.06
2018-01-20T03:09:54.647Z,89.49
2018-01-20T03:10:35.272Z,89.96
2018-01-20T03:11:15.828Z,90.06
2018-01-20T03:11:56.393Z,90.06
2018-01-20T03:12:36.951Z,89.77
2018-01-20T03:13:17.504Z,90.25
2018-01-20T03:13:58.054Z,90.15
2018-01-20T03:14:38.606Z,90.44
2018-01-20T03:15:19.162Z,90.15
2018-01-20T03:15:59.714Z,89.96
2018-01-20T03:16:40.266Z,90.29
2018-01-20T03:17:20.837Z,89.68
2018-01-20T03:18:01.384Z,89.72
2018-01-20T03:18:41.949Z,90.2
2018-01-20T03:19:22.526Z,90.25
2018-01-20T03:20:03.079Z,90.25
2018-01-20T03:20:43.640Z,90.06
2018-01-20T03:21:24.196Z,89.96
2018-01-20T03:22:04.745Z,89.91
2018-01-20T03:22:45.305Z,90.1
2018-01-20T03:23:25.853Z,89.58
2018-01-20T03:24:06.403Z,89.34
2018-01-20T03:24:46.958Z,89.3
2018-01-20T03:25:27.525Z,89.58
2018-01-20T03:26:08.081Z,89.44
2018-01-20T03:26:48.637Z,89.39
2018-01-20T03:27:29.195Z,89.87
2018-01-20T03:28:09.798Z,89.72
2018-01-20T03:28:50.358Z,90.15
2018-01-20T03:29:30.922Z,89.96
2018-01-20T03:30:11.481Z,89.68
2018-01-20T03:30:52.042Z,89.58
2018-01-20T03:31:32.603Z,89.87
2018-01-20T03:32:13.175Z,89.87
2018-01-20T03:32:53.741Z,89.87
2018-01-20T03:33:34.302Z,89.96
2018-01-20T03:34:14.860Z,89.68
2018-01-20T03:34:55.420Z,89.96
2018-01-20T03:35:35.984Z,89.77
2018-01-20T03:36:16.543Z,89.87
2018-01-20T03:36:57.093Z,90.06
2018-01-20T03:37:37.649Z,89.87
2018-01-20T03:38:18.201Z,90.44
2018-01-20T03:38:58.751Z,90.06
2018-01-20T03:39:39.311Z,89.68
2018-01-20T03:40:19.886Z,90.06
2018-01-20T03:41:00.455Z,90.06
2018-01-20T03:41:41.014Z,90.06
2018-01-20T03:42:21.566Z,90.25
2018-01-20T03:43:02.127Z,90.15
2018-01-20T03:43:42.692Z,90.91
2018-01-20T03:44:23.249Z,90.63
2018-01-20T03:45:03.823Z,90.63
2018-01-20T03:45:44.374Z,90.44
2018-01-20T03:46:24.937Z,90.72
2018-01-20T03:47:05.497Z,90.72
2018-01-20T03:47:46.049Z,90.72
2018-01-20T03:48:26.612Z,90.72
2018-01-20T03:49:07.157Z,90.81
2018-01-20T03:49:47.712Z,90.63
2018-01-20T03:50:28.279Z,90.53
2018-01-20T03:51:08.838Z,90.72
2018-01-20T03:51:49.393Z,90.53
2018-01-20T03:52:30.015Z,90.44
2018-01-20T03:53:10.566Z,90.44
2018-01-20T03:53:51.127Z,90.53
2018-01-20T03:54:31.687Z,90.63
2018-01-20T03:55:12.243Z,90.25
2018-01-20T03:55:52.794Z,90.44
2018-01-20T03:56:33.348Z,90.53
2018-01-20T03:57:13.926Z,90.44
2018-01-20T03:57:54.478Z,90.72
2018-01-20T03:58:35.047Z,90.72
2018-01-20T03:59:15.599Z,90.63
2018-01-20T03:59:56.151Z,90.34
2018-01-20T04:00:36.709Z,90.34
2018-01-20T04:01:17.267Z,90.81
2018-01-20T04:01:57.825Z,90.48
2018-01-20T04:02:38.386Z,90.53
2018-01-20T04:03:18.954Z,90.34
2018-01-20T04:03:59.515Z,90.15
2018-01-20T04:04:40.077Z,90.15
2018-01-20T04:05:20.636Z,90.06
2018-01-20T04:06:01.177Z,90.53
2018-01-20T04:06:41.728Z,90.25
2018-01-20T04:07:22.289Z,90.53
2018-01-20T04:08:02.855Z,90.81
2018-01-20T04:08:43.421Z,90.86
2018-01-20T04:09:23.974Z,90.53
2018-01-20T04:10:04.532Z,90.63
2018-01-20T04:10:45.108Z,90.34
2018-01-20T04:11:25.671Z,90.25
2018-01-20T04:12:06.228Z,90.44
2018-01-20T04:12:46.798Z,90.67
2018-01-20T04:13:27.361Z,90.81
2018-01-20T04:14:07.929Z,90.63
2018-01-20T04:14:48.491Z,89.96
2018-01-20T04:15:29.052Z,90.15
2018-01-20T04:16:09.623Z,90.25
2018-01-20T04:16:50.185Z,90.77
2018-01-20T04:17:30.754Z,90.81
2018-01-20T04:18:11.313Z,90.48
2018-01-20T04:18:51.871Z,90.72
2018-01-20T04:19:32.437Z,90.44
2018-01-20T04:20:13.019Z,90.72
2018-01-20T04:20:53.582Z,90.44
2018-01-20T04:21:34.132Z,90.34
2018-01-20T04:22:14.696Z,90.29
2018-01-20T04:22:55.262Z,90.39
2018-01-20T04:23:35.819Z,90.48
2018-01-20T04:24:16.375Z,90.48
2018-01-20T04:24:56.946Z,90.34
2018-01-20T04:25:37.509Z,90.58
2018-01-20T04:26:18.096Z,90.67
2018-01-20T04:26:58.638Z,90.25
2018-01-20T04:27:39.191Z,90.67
2018-01-20T04:28:19.754Z,90.67
2018-01-20T04:29:00.351Z,90.58
2018-01-20T04:29:40.904Z,90.48
2018-01-20T04:30:21.470Z,90.39
2018-01-20T04:31:02.034Z,90.77
2018-01-20T04:31:42.586Z,90.86
2018-01-20T04:32:23.144Z,90.86
2018-01-20T04:33:03.732Z,91.05
2018-01-20T04:33:44.295Z,90.2
2018-01-20T04:34:24.884Z,89.72
2018-01-20T04:35:05.449Z,90.39
2018-01-20T04:35:46.010Z,90.1
2018-01-20T04:36:26.578Z,90.01
2018-01-20T04:37:07.126Z,90.53
2018-01-20T04:37:47.681Z,90.48
2018-01-20T04:38:28.238Z,90.81
2018-01-20T04:39:08.796Z,90.58
2018-01-20T04:39:49.357Z,90.29
2018-01-20T04:40:29.982Z,90.53
2018-01-20T04:41:10.548Z,90.34
2018-01-20T04:41:51.102Z,90.25
2018-01-20T04:42:31.657Z,90.58
2018-01-20T04:43:12.207Z,90.53
2018-01-20T04:43:52.776Z,90.58
2018-01-20T04:44:33.331Z,90.44
2018-01-20T04:45:13.932Z,90.44
2018-01-20T04:45:54.496Z,90.81
2018-01-20T04:46:35.089Z,91.19
2018-01-20T04:47:15.680Z,91.19
2018-01-20T04:47:56.242Z,91.29
2018-01-20T04:48:36.798Z,91.38
2018-01-20T04:49:17.365Z,91.76
2018-01-20T04:49:57.919Z,91.38
2018-01-20T04:50:38.488Z,91.38
2018-01-20T04:51:19.182Z,91.57
2018-01-20T04:51:59.752Z,91.29
2018-01-20T04:52:40.314Z,91.38
2018-01-20T04:53:20.871Z,91.57
2018-01-20T04:54:01.434Z,91.57
2018-01-20T04:54:42.006Z,91.67
2018-01-20T04:55:22.556Z,91.48
2018-01-20T04:56:03.118Z,91.76
2018-01-20T04:56:43.679Z,91.81
2018-01-20T04:57:24.231Z,91.38
2018-01-20T04:58:04.799Z,91.38
2018-01-20T04:58:45.363Z,91.67
2018-01-20T04:59:25.957Z,91.67
2018-01-20T05:00:06.515Z,91.67
2018-01-20T05:00:47.265Z,91.67
2018-01-20T05:01:27.818Z,91.76
2018-01-20T05:02:08.372Z,91.48
2018-01-20T05:02:48.929Z,91.38
2018-01-20T05:03:29.482Z,91.48
2018-01-20T05:04:10.045Z,91.29
2018-01-20T05:04:50.622Z,91.1
2018-01-20T05:05:31.182Z,91.67
2018-01-20T05:06:11.734Z,91.29
2018-01-20T05:06:52.299Z,91.38
2018-01-20T05:07:32.850Z,91.38
2018-01-20T05:08:13.403Z,91.48
2018-01-20T05:08:53.975Z,91.48
2018-01-20T05:09:34.530Z,91.38
2018-01-20T05:10:15.104Z,91.19
2018-01-20T05:10:55.665Z,91.19
2018-01-20T05:11:36.278Z,91.19
2018-01-20T05:12:16.926Z,91.67
2018-01-20T05:12:57.547Z,91.38
2018-01-20T05:13:38.185Z,91
2018-01-20T05:14:18.856Z,91.29
2018-01-20T05:14:59.610Z,91.48
2018-01-20T05:15:40.185Z,91.38
2018-01-20T05:16:20.756Z,91.57
2018-01-20T05:17:01.380Z,91.67
2018-01-20T05:17:42.059Z,91.38
2018-01-20T05:18:22.704Z,91.67
2018-01-20T05:19:03.392Z,91.38
2018-01-20T05:19:44.064Z,91.29
2018-01-20T05:20:24.669Z,91.67
2018-01-20T05:21:05.290Z,91.48
2018-01-20T05:21:45.959Z,91.38
2018-01-20T05:22:26.694Z,91.38
2018-01-20T05:23:07.392Z,91.38
2018-01-20T05:23:48.029Z,91.67
2018-01-20T05:24:28.598Z,91.67
2018-01-20T05:25:09.153Z,91.76
2018-01-20T05:25:49.708Z,91.67
2018-01-20T05:26:30.286Z,91.19
2018-01-20T05:27:10.867Z,91.1
2018-01-20T05:27:51.437Z,91.57
2018-01-20T05:28:32.011Z,91.67
2018-01-20T05:29:12.576Z,91.38
2018-01-20T05:29:53.142Z,91.38
2018-01-20T05:30:33.846Z,91.57
2018-01-20T05:31:14.426Z,91.67
2018-01-20T05:31:55.008Z,91.95
2018-01-20T05:32:35.582Z,91.67
2018-01-20T05:33:16.146Z,91.57
2018-01-20T05:33:56.708Z,91.19
2018-01-20T05:34:37.279Z,91.38
2018-01-20T05:35:17.833Z,91.67
2018-01-20T05:35:58.388Z,91.57
2018-01-20T05:36:38.950Z,91.48
2018-01-20T05:37:19.516Z,91.38
2018-01-20T05:38:00.103Z,91.67
2018-01-20T05:38:40.664Z,91.29
2018-01-20T05:39:21.238Z,91.38
2018-01-20T05:40:01.783Z,91.38
2018-01-20T05:40:42.381Z,91.57
2018-01-20T05:41:22.937Z,91.67
2018-01-20T05:42:03.493Z,91.48
2018-01-20T05:42:44.058Z,91.29
2018-01-20T05:43:24.637Z,91.57
2018-01-20T05:44:05.228Z,91.76
2018-01-20T05:44:45.798Z,91.57
2018-01-20T05:45:26.353Z,91.57
2018-01-20T05:46:06.907Z,91.76
2018-01-20T05:46:47.476Z,91.29
2018-01-20T05:47:28.043Z,91.48
2018-01-20T05:48:08.599Z,91.38
2018-01-20T05:48:49.199Z,91.38
2018-01-20T05:49:29.727Z,91.76
2018-01-20T05:50:10.291Z,91.29
2018-01-20T05:50:50.854Z,91.19
2018-01-20T05:51:31.410Z,91.48
2018-01-20T05:52:11.995Z,91.29
2018-01-20T05:52:52.556Z,91.57
2018-01-20T05:53:33.117Z,91.57
2018-01-20T05:54:13.686Z,92.05
2018-01-20T05:54:54.241Z,91.76
2018-01-20T05:55:34.814Z,91.86
2018-01-20T05:56:15.380Z,91.67
2018-01-20T05:56:55.937Z,91.57
2018-01-20T05:57:36.491Z,91.67
2018-01-20T05:58:17.047Z,92.24
2018-01-20T05:58:57.604Z,91.76
2018-01-20T05:59:38.211Z,91.95
2018-01-20T06:00:18.785Z,92.33
2018-01-20T06:00:59.340Z,91.95
2018-01-20T06:01:39.901Z,91.67
2018-01-20T06:02:20.473Z,91.67
2018-01-20T06:03:01.037Z,91.38
2018-01-20T06:03:41.590Z,91.67
2018-01-20T06:04:22.150Z,92.14
2018-01-20T06:05:02.703Z,91.86
2018-01-20T06:05:43.269Z,92.05
2018-01-20T06:06:23.838Z,92.43
2018-01-20T06:07:04.407Z,91.76
2018-01-20T06:07:44.988Z,92.05
2018-01-20T06:08:25.547Z,92.14
2018-01-20T06:09:06.114Z,92.14
2018-01-20T06:09:46.668Z,91.67
2018-01-20T06:10:27.222Z,91.48
2018-01-20T06:11:07.777Z,91.48
2018-01-20T06:11:48.328Z,91.67
2018-01-20T06:12:28.884Z,91.67
2018-01-20T06:13:09.447Z,91.38
2018-01-20T06:13:50.022Z,91.57
2018-01-20T06:14:30.597Z,91.48
2018-01-20T06:15:11.148Z,91.67
2018-01-20T06:15:51.706Z,91.76
2018-01-20T06:16:32.260Z,91.57
2018-01-20T06:17:12.823Z,91.38
2018-01-20T06:17:53.386Z,91.48
2018-01-20T06:18:33.953Z,91.57
2018-01-20T06:19:14.507Z,92.24
2018-01-20T06:19:55.077Z,92.24
2018-01-20T06:20:35.635Z,91.95
2018-01-20T06:21:16.189Z,91.86
2018-01-20T06:21:56.753Z,92.05
2018-01-20T06:22:37.323Z,92.05
2018-01-20T06:23:17.884Z,92.05
2018-01-20T06:23:58.464Z,91.95
2018-01-20T06:24:39.030Z,92.05
2018-01-20T06:25:19.590Z,91.95
2018-01-20T06:26:00.163Z,92.05
2018-01-20T06:26:40.759Z,92.52
2018-01-20T06:27:21.314Z,92.52
2018-01-20T06:28:01.870Z,92.05
2018-01-20T06:28:42.443Z,92.43
2018-01-20T06:29:23.005Z,92.05
2018-01-20T06:30:03.555Z,91.86
2018-01-20T06:30:44.127Z,92.14
2018-01-20T06:31:24.689Z,91.76
2018-01-20T06:32:05.265Z,91.95
2018-01-20T06:32:45.822Z,92.05
2018-01-20T06:33:26.383Z,91.86
2018-01-20T06:34:06.942Z,91.95
2018-01-20T06:34:47.520Z,91.86
2018-01-20T06:35:28.086Z,91.76
2018-01-20T06:36:08.648Z,91.48
2018-01-20T06:36:49.212Z,91.95
2018-01-20T06:37:29.785Z,91.95
2018-01-20T06:38:10.353Z,92.24
2018-01-20T06:38:50.927Z,92.05
2018-01-20T06:39:31.490Z,92.43
2018-01-20T06:40:12.049Z,92.24
2018-01-20T06:40:52.617Z,92.33
2018-01-20T06:41:33.179Z,92.33
2018-01-20T06:42:13.735Z,92.05
2018-01-20T06:42:54.854Z,91.95
2018-01-20T06:43:36.021Z,92.14
2018-01-20T06:44:16.821Z,91.95
2018-01-20T06:44:57.482Z,92.05
2018-01-20T06:45:38.140Z,92.43
2018-01-20T06:46:18.894Z,92.71
2018-01-20T06:46:59.657Z,91.95
2018-01-20T06:47:40.297Z,92.05
2018-01-20T06:48:20.844Z,91.86
2018-01-20T06:49:01.398Z,92.05
2018-01-20T06:49:42.584Z,92.05
2018-01-20T06:50:23.566Z,91.86
2018-01-20T06:51:04.126Z,91.76
2018-01-20T06:51:44.730Z,91.95
2018-01-20T06:52:25.292Z,91.76
2018-01-20T06:53:05.891Z,92.05
2018-01-20T06:53:46.426Z,92.05
2018-01-20T06:54:26.985Z,91.86
2018-01-20T06:55:07.538Z,92.05
2018-01-20T06:55:48.097Z,91.76
2018-01-20T06:56:28.769Z,91.95
2018-01-20T06:57:10.128Z,91.86
2018-01-20T06:57:51.945Z,91.86
2018-01-20T06:58:37.734Z,92.52
2018-01-20T06:59:18.293Z,92.05
2018-01-20T06:59:58.865Z,92.05
2018-01-20T07:00:39.419Z,92.05
2018-01-20T07:01:19.995Z,91.95
2018-01-20T07:02:00.560Z,91.86
2018-01-20T07:02:41.375Z,92.43
2018-01-20T07:03:22.284Z,92.14
2018-01-20T07:04:02.841Z,91.38
2018-01-20T07:04:43.488Z,91.29
2018-01-20T07:05:24.039Z,91.48
2018-01-20T07:06:04.604Z,91.67
2018-01-20T07:06:45.742Z,92.24
2018-01-20T07:07:26.305Z,92.24
2018-01-20T07:08:07.379Z,91.95
2018-01-20T07:08:48.229Z,92.24
2018-01-20T07:09:28.986Z,92.24
2018-01-20T07:10:09.544Z,91.76
2018-01-20T07:10:50.109Z,91.95
2018-01-20T07:11:30.744Z,91.95
2018-01-20T07:12:11.742Z,92.8
2018-01-20T07:12:52.519Z,91.95
2018-01-20T07:13:33.081Z,91.95
2018-01-20T07:14:13.641Z,91.76
2018-01-20T07:14:54.207Z,92.24
2018-01-20T07:15:35.009Z,92.24
2018-01-20T07:16:15.678Z,92.14
2018-01-20T07:16:56.340Z,92.52
2018-01-20T07:17:37.620Z,92.43
2018-01-20T07:18:18.578Z,92.24
2018-01-20T07:18:59.441Z,92.24
2018-01-20T07:19:40.428Z,92.24
2018-01-20T07:20:21.263Z,92.05
2018-01-20T07:21:02.003Z,92.05
2018-01-20T07:21:42.831Z,92.14
2018-01-20T07:22:23.790Z,91.95
2018-01-20T07:23:04.499Z,91.76
2018-01-20T07:23:45.148Z,91.67
2018-01-20T07:24:26.100Z,91.48
2018-01-20T07:25:06.939Z,91.67
2018-01-20T07:25:47.825Z,91.67
2018-01-20T07:26:28.648Z,92.33
2018-01-20T07:27:09.386Z,92.05
2018-01-20T07:27:50.176Z,92.71
2018-01-20T07:28:32.325Z,92.14
2018-01-20T07:29:12.955Z,91.95
2018-01-20T07:29:53.506Z,92.14
2018-01-20T07:30:34.842Z,91.38
2018-01-20T07:31:15.458Z,91.86
2018-01-20T07:31:55.958Z,91.86
2018-01-20T07:32:36.516Z,92.05
2018-01-20T07:33:17.075Z,91.86
2018-01-20T07:33:57.633Z,92.24
2018-01-20T07:34:38.195Z,92.24
2018-01-20T07:35:18.768Z,91.67
2018-01-20T07:35:59.331Z,91.38
2018-01-20T07:36:39.903Z,91.48
2018-01-20T07:37:20.463Z,91.76
2018-01-20T07:38:01.035Z,91.67
2018-01-20T07:38:41.584Z,91.67
2018-01-20T07:39:22.137Z,92.14
2018-01-20T07:40:02.708Z,91.95
2018-01-20T07:40:43.261Z,91.86
2018-01-20T07:41:23.812Z,92.05
2018-01-20T07:42:04.393Z,91.86
2018-01-20T07:42:44.982Z,92.05
2018-01-20T07:43:25.538Z,92.33
2018-01-20T07:44:06.118Z,92.14
2018-01-20T07:44:46.666Z,91.76
2018-01-20T07:45:27.237Z,92.05
2018-01-20T07:46:07.803Z,92.14
2018-01-20T07:46:48.370Z,92.14
2018-01-20T07:47:28.920Z,92.52
2018-01-20T07:48:09.538Z,92.24
2018-01-20T07:48:50.102Z,92.33
2018-01-20T07:49:30.666Z,92.24
2018-01-20T07:50:11.651Z,92.33
2018-01-20T07:50:52.243Z,92.33
2018-01-20T07:51:32.834Z,92.14
2018-01-20T07:52:13.404Z,92.33
2018-01-20T07:52:53.962Z,92.43
2018-01-20T07:53:34.668Z,92.33
2018-01-20T07:54:15.230Z,92.33
2018-01-20T07:54:55.792Z,92.33
2018-01-20T07:55:36.378Z,92.05
2018-01-20T07:56:16.935Z,92.24
2018-01-20T07:56:57.518Z,92.33
2018-01-20T07:57:38.075Z,92.33
2018-01-20T07:58:18.627Z,91.86
2018-01-20T07:58:59.513Z,92.05
2018-01-20T07:59:39.900Z,92.24
2018-01-20T08:00:20.487Z,92.24
2018-01-20T08:01:01.207Z,92.33
2018-01-20T08:01:41.759Z,92.43
2018-01-20T08:02:22.332Z,92.24
2018-01-20T08:03:02.913Z,92.24
2018-01-20T08:03:43.610Z,92.33
2018-01-20T08:04:24.173Z,91.95
2018-01-20T08:05:04.958Z,92.9
2018-01-20T08:05:45.558Z,92.99
2018-01-20T08:06:26.120Z,92.71
2018-01-20T08:07:06.680Z,92.9
2018-01-20T08:07:47.239Z,92.9
2018-01-20T08:08:27.816Z,92.61
2018-01-20T08:09:08.382Z,92.9
2018-01-20T08:09:49.027Z,92.24
2018-01-20T08:10:29.545Z,92.33
2018-01-20T08:11:10.127Z,92.24
2018-01-20T08:11:50.700Z,92.33
2018-01-20T08:12:31.406Z,91.95
2018-01-20T08:13:11.961Z,92.05
2018-01-20T08:13:52.517Z,91.86
2018-01-20T08:14:33.076Z,91.67
2018-01-20T08:15:13.632Z,91.67
2018-01-20T08:15:54.205Z,91.38
2018-01-20T08:16:37.511Z,91.29
2018-01-20T08:17:18.176Z,91.57
2018-01-20T08:17:58.747Z,91.57
2018-01-20T08:18:39.343Z,91.67
2018-01-20T08:19:20.287Z,91.57
2018-01-20T08:20:00.855Z,91.19
2018-01-20T08:20:41.412Z,91.76
2018-01-20T08:21:21.968Z,91.76
2018-01-20T08:22:02.536Z,91.38
2018-01-20T08:22:43.110Z,91.48
2018-01-20T08:23:23.706Z,91.38
2018-01-20T08:24:04.283Z,91.57
2018-01-20T08:24:44.849Z,91.38
2018-01-20T08:25:25.430Z,91.76
2018-01-20T08:26:06.047Z,91.86
2018-01-20T08:26:46.586Z,91.76
2018-01-20T08:27:27.157Z,91.57
2018-01-20T08:28:07.717Z,91.38
2018-01-20T08:28:48.277Z,91.38
2018-01-20T08:29:28.850Z,91.38
2018-01-20T08:30:09.461Z,91.38
2018-01-20T08:30:49.986Z,91.48
2018-01-20T08:31:30.602Z,91.19
2018-01-20T08:32:11.164Z,91.38
2018-01-20T08:32:52.011Z,91.38
2018-01-20T08:33:32.600Z,91.62
2018-01-20T08:34:13.178Z,91.43
2018-01-20T08:34:53.743Z,91.33
2018-01-20T08:35:34.345Z,91.67
2018-01-20T08:36:14.957Z,91.62
2018-01-20T08:36:55.494Z,91.71
2018-01-20T08:37:36.098Z,90.95
2018-01-20T08:38:16.719Z,91.05
2018-01-20T08:38:57.368Z,90.95
2018-01-20T08:39:37.938Z,91.14
2018-01-20T08:40:18.582Z,91.33
2018-01-20T08:40:59.143Z,90.95
2018-01-20T08:41:39.700Z,90.95
2018-01-20T08:42:20.281Z,90.77
2018-01-20T08:43:03.152Z,91.19
2018-01-20T08:43:43.712Z,90.95
2018-01-20T08:44:24.286Z,90.58